Time;durP1;ratioP1;P1;durP2;ratioP2;P2;SDS_P1;SDS_P2;PMS_P1;PMS_P2;Temp;Humidity;BMP_temperature;BMP_pressure;BME280_temperature;BME280_humidity;BME280_pressure;Samples;Min_cycle;Max_cycle;Signal;HPM_P1;HPM_P2
2023/08/18 00:03:57;;;;;;;2.45;2.03;;;20.00;99.90;;;;;;9986662;29;20279;-78
2023/08/18 00:09:18;;;;;;;4.72;2.20;;;20.00;1.00;;;;;;9973435;29;20691;-78
2023/08/18 00:14:40;;;;;;;3.28;2.55;;;20.00;99.90;;;;;;9965026;29;20248;-82
2023/08/18 00:20:01;;;;;;;4.00;2.65;;;20.00;1.00;;;;;;9965451;29;20429;-83
2023/08/18 00:25:22;;;;;;;2.80;2.50;;;20.00;1.00;;;;;;9964880;29;20210;-81
2023/08/18 00:30:43;;;;;;;2.35;2.10;;;19.90;99.90;;;;;;9965490;29;20231;-79
2023/08/18 00:36:05;;;;;;;5.50;2.70;;;19.90;1.00;;;;;;9963047;29;20220;-79
2023/08/18 00:41:26;;;;;;;3.92;2.65;;;19.90;1.00;;;;;;9963955;29;20240;-79
2023/08/18 00:46:48;;;;;;;5.45;2.50;;;20.00;1.00;;;;;;9977376;29;20275;-79
2023/08/18 00:52:10;;;;;;;4.72;2.92;;;20.00;1.00;;;;;;9963029;29;20240;-79
2023/08/18 00:57:32;;;;;;;4.03;2.83;;;19.90;99.90;;;;;;9965140;29;20211;-79
2023/08/18 01:02:55;;;;;;;3.47;2.70;;;19.90;99.90;;;;;;9977881;29;20215;-78
2023/08/18 01:08:18;;;;;;;3.47;2.60;;;19.90;99.90;;;;;;9972543;29;20209;-79
2023/08/18 01:13:43;;;;;;;2.67;2.47;;;19.90;99.90;;;;;;9963950;29;20305;-82
2023/08/18 01:19:09;;;;;;;2.75;2.45;;;19.90;99.90;;;;;;9965436;29;20212;-82
2023/08/18 01:24:30;;;;;;;5.57;2.97;;;20.00;99.90;;;;;;9970679;29;20235;-81
2023/08/18 01:29:51;;;;;;;5.55;2.85;;;20.00;99.90;;;;;;9956262;29;20215;-78
2023/08/18 01:35:18;;;;;;;5.60;2.95;;;20.00;1.00;;;;;;9963961;29;20315;-79
2023/08/18 01:40:40;;;;;;;6.05;3.90;;;20.00;1.00;;;;;;9962262;29;20211;-79
2023/08/18 01:46:01;;;;;;;6.65;3.20;;;19.90;1.00;;;;;;9944463;29;20258;-78
2023/08/18 01:51:23;;;;;;;3.70;2.60;;;19.90;1.00;;;;;;9969412;29;20240;-79
2023/08/18 01:56:44;;;;;;;4.55;2.90;;;19.90;1.00;;;;;;9969431;29;20208;-78
2023/08/18 02:02:06;;;;;;;3.75;2.55;;;19.90;1.00;;;;;;9989432;29;20200;-79
2023/08/18 02:07:27;;;;;;;3.17;2.50;;;19.80;1.00;;;;;;9979165;29;20212;-78
2023/08/18 02:12:49;;;;;;;2.90;2.20;;;19.70;1.00;;;;;;9955797;29;20236;-78
2023/08/18 02:18:11;;;;;;;3.03;2.42;;;19.70;1.00;;;;;;9955308;29;20231;-78
2023/08/18 02:23:33;;;;;;;4.15;2.90;;;19.70;1.00;;;;;;9967204;29;20526;-78
2023/08/18 02:28:54;;;;;;;3.40;2.40;;;19.80;1.00;;;;;;9967414;29;20450;-79
2023/08/18 02:34:15;;;;;;;4.30;2.92;;;19.80;1.00;;;;;;9965844;29;20232;-79
2023/08/18 02:39:37;;;;;;;3.58;3.22;;;19.80;1.00;;;;;;9954363;29;20212;-79
2023/08/18 02:44:58;;;;;;;4.00;3.00;;;19.80;1.00;;;;;;9967345;29;20450;-78
2023/08/18 02:50:19;;;;;;;3.63;2.80;;;19.80;1.00;;;;;;9953167;29;20261;-79
2023/08/18 02:55:42;;;;;;;3.50;3.00;;;19.70;1.00;;;;;;9968038;29;20215;-79
2023/08/18 03:01:05;;;;;;;4.93;3.10;;;19.70;1.00;;;;;;9979073;29;20215;-79
2023/08/18 03:06:27;;;;;;;4.78;3.22;;;19.60;1.00;;;;;;9975218;29;20304;-79
2023/08/18 03:11:49;;;;;;;4.38;2.95;;;19.60;1.00;;;;;;9966083;29;20322;-80
2023/08/18 03:17:11;;;;;;;4.80;3.00;;;19.60;1.00;;;;;;9965779;29;20446;-79
2023/08/18 03:22:34;;;;;;;6.53;3.25;;;19.60;1.00;;;;;;9953178;29;20291;-79
2023/08/18 03:27:55;;;;;;;4.25;3.40;;;19.70;1.00;;;;;;9952870;29;20447;-79
2023/08/18 03:33:17;;;;;;;4.57;3.40;;;19.70;1.00;;;;;;9964484;29;20232;-79
2023/08/18 03:38:38;;;;;;;5.25;3.00;;;19.70;1.00;;;;;;9939797;29;20288;-79
2023/08/18 03:44:00;;;;;;;3.65;3.00;;;19.80;1.00;;;;;;9940103;29;20276;-79
2023/08/18 03:49:21;;;;;;;4.82;3.20;;;19.80;1.00;;;;;;9935491;29;20244;-79
2023/08/18 03:54:42;;;;;;;3.08;2.78;;;19.80;1.00;;;;;;9952113;29;20242;-79
2023/08/18 04:00:09;;;;;;;4.05;2.97;;;19.80;1.00;;;;;;9969606;29;20462;-79
2023/08/18 04:05:47;;;;;;;5.93;3.33;;;19.80;1.00;;;;;;9981412;29;20222;-78
2023/08/18 04:11:10;;;;;;;3.47;2.80;;;19.80;1.00;;;;;;9964324;29;20232;-79
2023/08/18 04:16:31;;;;;;;3.63;3.33;;;19.90;1.00;;;;;;9951293;29;20204;-79
2023/08/18 04:21:53;;;;;;;3.80;2.95;;;19.90;1.00;;;;;;9950822;29;20291;-79
2023/08/18 04:27:14;;;;;;;4.60;3.30;;;20.00;1.00;;;;;;9963989;29;20205;-79
2023/08/18 04:32:36;;;;;;;5.25;3.75;;;20.10;1.00;;;;;;9951088;29;20429;-77
2023/08/18 04:37:57;;;;;;;4.43;3.30;;;20.20;1.00;;;;;;9949613;29;20228;-79
2023/08/18 04:43:19;;;;;;;3.50;3.20;;;20.30;1.00;;;;;;9963664;29;20250;-79
2023/08/18 04:48:41;;;;;;;6.05;4.10;;;20.40;1.00;;;;;;9950887;29;20197;-80
2023/08/18 04:54:03;;;;;;;3.90;3.50;;;20.60;1.00;;;;;;9954023;29;20467;-79
2023/08/18 04:59:26;;;;;;;6.15;4.13;;;20.70;1.00;;;;;;9984118;29;20204;-79
2023/08/18 05:04:50;;;;;;;5.85;3.83;;;20.70;1.00;;;;;;9998281;29;20227;-79
2023/08/18 05:10:12;;;;;;;4.93;3.50;;;20.60;1.00;;;;;;9983073;29;20564;-79
2023/08/18 05:15:34;;;;;;;4.93;3.45;;;20.60;1.00;;;;;;9982983;29;20234;-79
2023/08/18 05:21:00;;;;;;;5.75;3.42;;;20.70;1.00;;;;;;9981281;29;20211;-79
2023/08/18 05:26:21;;;;;;;4.00;3.50;;;20.70;1.00;;;;;;9970460;29;20215;-79
2023/08/18 05:31:45;;;;;;;4.45;3.20;;;20.90;1.00;;;;;;10007021;29;20212;-81
2023/08/18 05:37:06;;;;;;;4.38;3.40;;;20.90;1.00;;;;;;9982436;29;20328;-79
2023/08/18 05:42:28;;;;;;;3.53;2.97;;;21.00;1.00;;;;;;9969798;29;20313;-79
2023/08/18 05:47:49;;;;;;;3.88;3.47;;;21.10;1.00;;;;;;9969185;29;20208;-79
2023/08/18 05:53:10;;;;;;;5.93;3.95;;;21.20;1.00;;;;;;9967892;29;20239;-79
2023/08/18 05:58:32;;;;;;;3.80;3.40;;;21.40;1.00;;;;;;9969213;29;20251;-80
2023/08/18 06:03:53;;;;;;;3.60;3.20;;;21.50;99.90;;;;;;10001421;29;20278;-82
2023/08/18 06:09:15;;;;;;;3.78;3.38;;;21.60;99.90;;;;;;9972796;29;20244;-79
2023/08/18 06:14:36;;;;;;;3.40;2.95;;;21.70;74.00;;;;;;9955465;29;20268;-79
2023/08/18 06:19:58;;;;;;;3.80;3.50;;;;;;;;;;9967184;29;20216;-79
2023/08/18 06:25:20;;;;;;;9.98;5.68;;;22.60;1.00;;;;;;9967746;29;20503;-80
2023/08/18 06:30:41;;;;;;;11.00;4.90;;;23.00;99.90;;;;;;9968009;29;20442;-80
2023/08/18 06:36:04;;;;;;;5.30;3.65;;;;;;;;;;9966732;29;20561;-79
2023/08/18 06:41:25;;;;;;;6.63;4.00;;;24.40;99.90;;;;;;9917009;29;20249;-79
2023/08/18 06:46:46;;;;;;;6.00;3.97;;;25.40;1.00;;;;;;9930753;29;20208;-79
2023/08/18 06:52:08;;;;;;;7.28;4.15;;;26.00;1.00;;;;;;9950261;29;20236;-80
2023/08/18 06:57:29;;;;;;;6.00;3.83;;;26.40;99.90;;;;;;9966599;29;20228;-79
2023/08/18 07:02:51;;;;;;;6.20;3.75;;;26.80;99.90;;;;;;9947584;29;20236;-82
2023/08/18 07:08:15;;;;;;;8.32;5.03;;;26.60;99.90;;;;;;9965651;29;20208;-79
2023/08/18 07:13:36;;;;;;;6.20;4.30;;;25.90;1.00;;;;;;9961667;29;20350;-80
2023/08/18 07:18:58;;;;;;;6.00;4.25;;;25.40;1.00;;;;;;9959751;29;20515;-79
2023/08/18 07:24:19;;;;;;;8.35;4.05;;;25.20;1.00;;;;;;9923097;29;20288;-79
2023/08/18 07:29:40;;;;;;;6.25;5.03;;;25.20;92.20;;;;;;9943227;29;20236;-79
2023/08/18 07:35:06;;;;;;;8.98;4.70;;;25.10;5.00;;;;;;9960497;29;20244;-80
2023/08/18 07:40:27;;;;;;;6.78;5.03;;;24.80;99.90;;;;;;9947240;29;20212;-80
2023/08/18 07:45:49;;;;;;;5.60;4.45;;;24.80;1.00;;;;;;9999415;29;20207;-78
2023/08/18 07:51:10;;;;;;;5.30;4.43;;;25.20;1.00;;;;;;9997787;29;20212;-80
2023/08/18 07:56:31;;;;;;;5.35;4.20;;;26.10;99.90;;;;;;9975860;29;20212;-78
2023/08/18 08:01:53;;;;;;;4.45;3.85;;;27.40;3.10;;;;;;9969791;29;20238;-79
2023/08/18 08:07:14;;;;;;;6.80;4.15;;;28.00;1.00;;;;;;9961661;29;20196;-79
2023/08/18 08:12:38;;;;;;;7.05;4.30;;;28.50;1.00;;;;;;9975581;29;20270;-79
2023/08/18 08:17:59;;;;;;;4.75;3.83;;;29.20;1.00;;;;;;9970837;29;20208;-82
2023/08/18 08:23:21;;;;;;;6.40;4.32;;;29.00;1.00;;;;;;9975771;29;20397;-79
2023/08/18 08:28:44;;;;;;;6.22;4.85;;;;;;;;;;9960693;29;20224;-79
2023/08/18 08:34:05;;;;;;;4.97;3.80;;;30.50;1.00;;;;;;10002781;29;20243;-79
2023/08/18 08:39:27;;;;;;;8.70;4.78;;;30.00;1.00;;;;;;9968483;29;20696;-79
2023/08/18 08:44:48;;;;;;;4.22;3.83;;;30.50;1.00;;;;;;9970205;29;20268;-79
2023/08/18 08:50:15;;;;;;;9.07;4.57;;;30.90;1.00;;;;;;9969440;29;20208;-78
2023/08/18 08:55:37;;;;;;;10.98;4.70;;;30.70;1.00;;;;;;9962791;29;20236;-81
2023/08/18 09:01:01;;;;;;;9.70;4.65;;;29.70;1.00;;;;;;9987689;29;20212;-78
2023/08/18 09:06:23;;;;;;;5.60;4.40;;;29.20;1.00;;;;;;9921301;29;20235;-79
2023/08/18 09:11:47;;;;;;;10.35;4.30;;;29.20;1.00;;;;;;9989080;29;20231;-79
2023/08/18 09:17:10;;;;;;;5.55;4.10;;;29.10;1.00;;;;;;10002705;29;20211;-90
2023/08/18 09:22:32;;;;;;;7.85;4.03;;;29.00;1.00;;;;;;9989006;29;20204;-81
2023/08/18 09:27:53;;;;;;;8.98;4.75;;;28.80;1.00;;;;;;9948211;29;20231;-80
2023/08/18 09:33:15;;;;;;;8.68;5.40;;;28.70;1.00;;;;;;9939836;29;20262;-85
2023/08/18 09:38:43;;;;;;;10.77;5.43;;;28.80;1.00;;;;;;9921764;29;20406;-80
2023/08/18 09:44:04;;;;;;;5.07;4.55;;;28.60;1.00;;;;;;9900644;30;20552;-79
2023/08/18 09:49:27;;;;;;;7.03;4.35;;;29.10;1.00;;;;;;9927306;29;20280;-86
2023/08/18 09:55:01;;;;;;;6.43;4.88;;;30.70;1.00;;;;;;9934576;29;20320;-84
2023/08/18 10:00:26;;;;;;;6.35;4.35;;;31.80;1.00;;;;;;9967722;29;20716;-83
2023/08/18 10:05:48;;;;;;;6.68;4.53;;;33.10;1.00;;;;;;10002074;29;20204;-82
2023/08/18 10:11:10;;;;;;;9.15;4.18;;;33.80;1.00;;;;;;9994102;29;20297;-81
2023/08/18 10:16:32;;;;;;;10.82;4.00;;;33.70;1.00;;;;;;9960146;29;20315;-80
2023/08/18 10:21:53;;;;;;;4.30;3.13;;;33.80;1.00;;;;;;9983946;29;20212;-79
2023/08/18 10:27:27;;;;;;;7.47;2.88;;;34.00;1.00;;;;;;9985141;29;20315;-82
2023/08/18 10:32:50;;;;;;;5.68;2.92;;;34.20;1.00;;;;;;9967523;29;20231;-81
2023/08/18 10:38:11;;;;;;;5.22;3.10;;;34.70;99.90;;;;;;9977401;29;20243;-80
2023/08/18 10:43:42;;;;;;;6.35;3.17;;;34.60;99.90;;;;;;9963994;29;20248;-81
2023/08/18 10:49:03;;;;;;;3.58;2.53;;;34.60;99.90;;;;;;9977328;29;20262;-80
2023/08/18 10:54:24;;;;;;;4.82;3.33;;;33.30;99.90;;;;;;9983289;29;20345;-81
2023/08/18 10:59:46;;;;;;;5.30;2.65;;;32.80;99.90;;;;;;9975229;29;20199;-84
2023/08/18 11:05:08;;;;;;;5.10;3.70;;;33.20;99.90;;;;;;9954827;29;20265;-80
2023/08/18 11:10:29;;;;;;;6.72;3.15;;;33.30;99.90;;;;;;9950748;29;20213;-81
2023/08/18 11:15:53;;;;;;;6.82;3.13;;;33.00;99.90;;;;;;9988505;29;20250;-81
2023/08/18 11:21:14;;;;;;;4.55;3.00;;;32.50;99.90;;;;;;9982661;29;20279;-84
2023/08/18 11:26:37;;;;;;;6.38;4.10;;;32.70;99.90;;;;;;9969618;29;20282;-81
2023/08/18 11:31:58;;;;;;;5.53;3.05;;;33.00;99.90;;;;;;9943272;29;20227;-81
2023/08/18 11:37:23;;;;;;;6.07;2.65;;;33.20;99.90;;;;;;9955688;29;20291;-81
2023/08/18 11:42:46;;;;;;;5.47;2.17;;;33.40;99.90;;;;;;9969544;29;20241;-80
2023/08/18 11:48:08;;;;;;;1.88;1.67;;;33.60;99.90;;;;;;9990359;29;20214;-80
2023/08/18 11:53:31;;;;;;;5.22;2.20;;;33.70;99.90;;;;;;9980022;29;20339;-81
2023/08/18 11:58:52;;;;;;;2.40;2.20;;;33.40;99.90;;;;;;9960626;29;20209;-82
2023/08/18 12:04:14;;;;;;;4.25;2.85;;;33.20;99.90;;;;;;9971369;29;20436;-81
2023/08/18 12:09:35;;;;;;;5.32;2.47;;;32.80;99.90;;;;;;9948655;29;20406;-80
2023/08/18 12:14:57;;;;;;;32.20;2.70;;;33.00;99.90;;;;;;9974739;29;20554;-79
2023/08/18 12:20:18;;;;;;;6.00;2.90;;;33.00;99.90;;;;;;9971443;29;20220;-83
2023/08/18 12:25:40;;;;;;;4.20;2.17;;;33.20;99.90;;;;;;9977343;29;20852;-82
2023/08/18 12:31:03;;;;;;;2.63;1.98;;;33.30;99.90;;;;;;9995043;29;20204;-85
2023/08/18 12:36:25;;;;;;;5.30;2.53;;;33.10;99.90;;;;;;9957283;29;20220;-88
2023/08/18 12:41:46;;;;;;;5.40;2.90;;;32.30;99.90;;;;;;9982031;29;20351;-86
2023/08/18 12:47:07;;;;;;;5.47;2.40;;;32.40;99.90;;;;;;9984116;29;20325;-81
2023/08/18 12:52:28;;;;;;;3.88;2.30;;;32.30;99.90;;;;;;9910146;29;20233;-80
2023/08/18 12:57:50;;;;;;;2.83;2.60;;;32.20;99.90;;;;;;9944812;29;20215;-79
2023/08/18 13:03:11;;;;;;;5.10;2.47;;;32.20;99.90;;;;;;9960241;29;20222;-80
2023/08/18 13:08:33;;;;;;;4.70;2.40;;;31.60;99.90;;;;;;9958674;29;20211;-80
2023/08/18 13:13:55;;;;;;;3.63;2.65;;;31.80;99.90;;;;;;9943183;29;20298;-79
2023/08/18 13:19:17;;;;;;;4.32;2.58;;;31.60;99.90;;;;;;9983573;29;20209;-79
2023/08/18 13:24:38;;;;;;;4.80;2.28;;;31.80;99.90;;;;;;10003335;29;20208;-79
2023/08/18 13:29:59;;;;;;;3.75;2.40;;;31.70;99.90;;;;;;9973131;29;20203;-80
2023/08/18 13:35:21;;;;;;;4.78;2.60;;;31.70;99.90;;;;;;9995917;29;20271;-79
2023/08/18 13:40:42;;;;;;;2.70;2.35;;;31.50;99.90;;;;;;9964984;29;20217;-79
2023/08/18 13:46:03;;;;;;;3.05;2.55;;;31.00;99.90;;;;;;9973457;29;20203;-79
2023/08/18 13:51:25;;;;;;;3.10;2.45;;;30.50;99.90;;;;;;9964093;29;20221;-79
2023/08/18 13:56:46;;;;;;;5.22;2.60;;;30.30;99.90;;;;;;9964919;29;20243;-79
2023/08/18 14:02:08;;;;;;;3.22;2.65;;;30.20;99.90;;;;;;9969923;29;20215;-80
2023/08/18 14:07:29;;;;;;;3.35;2.40;;;30.20;99.90;;;;;;10001816;29;20235;-79
2023/08/18 14:12:50;;;;;;;3.38;2.50;;;30.20;99.90;;;;;;9996392;29;20229;-79
2023/08/18 14:18:15;;;;;;;3.90;2.97;;;30.40;99.90;;;;;;9985969;29;20220;-79
2023/08/18 14:23:36;;;;;;;5.32;3.55;;;30.30;99.90;;;;;;9975602;29;20216;-79
2023/08/18 14:28:57;;;;;;;4.32;2.97;;;30.30;99.90;;;;;;9977844;29;20209;-82
2023/08/18 14:34:18;;;;;;;5.60;3.40;;;30.20;99.90;;;;;;9977358;29;20292;-79
2023/08/18 14:39:40;;;;;;;4.57;3.00;;;29.90;99.90;;;;;;9972117;29;20235;-79
2023/08/18 14:45:03;;;;;;;3.20;2.90;;;29.90;99.90;;;;;;9966306;29;20257;-81
2023/08/18 14:50:24;;;;;;;7.10;5.55;;;29.90;99.90;;;;;;9991385;29;20499;-80
2023/08/18 14:55:51;;;;;;;5.00;2.88;;;29.90;99.90;;;;;;9964207;29;20484;-80
2023/08/18 15:01:13;;;;;;;3.72;3.00;;;29.70;99.90;;;;;;9951380;29;20500;-86
2023/08/18 15:12:31;;;;;;;7.05;3.03;;;29.10;99.90;;;;;;9935836;24;20229;-85
2023/08/18 15:17:53;;;;;;;4.50;3.25;;;29.00;99.90;;;;;;9912460;30;20209;-82
2023/08/18 15:23:14;;;;;;;4.30;3.40;;;29.00;99.90;;;;;;9908342;30;20202;-84
2023/08/18 15:28:35;;;;;;;4.28;2.97;;;28.90;99.90;;;;;;9879079;30;20256;-82
2023/08/18 15:34:03;;;;;;;3.38;3.10;;;28.80;99.90;;;;;;9891410;30;20237;-85
2023/08/18 15:39:24;;;;;;;5.93;3.60;;;28.60;99.90;;;;;;9900475;29;20247;-82
2023/08/18 15:44:46;;;;;;;6.32;3.72;;;28.40;99.90;;;;;;9887787;30;20538;-82
2023/08/18 15:50:07;;;;;;;4.95;3.50;;;28.40;99.90;;;;;;9950247;29;20232;-80
2023/08/18 15:55:28;;;;;;;5.68;3.88;;;28.20;99.90;;;;;;9980594;29;20232;-81
2023/08/18 16:00:49;;;;;;;5.78;3.30;;;28.00;99.90;;;;;;9964587;29;20204;-80
2023/08/18 16:06:11;;;;;;;6.43;3.90;;;27.90;99.90;;;;;;9966148;29;20204;-81
2023/08/18 16:11:32;;;;;;;4.28;3.70;;;27.80;99.90;;;;;;9942408;29;20244;-81
2023/08/18 16:16:53;;;;;;;5.43;3.10;;;27.70;99.90;;;;;;9928419;29;20225;-80
2023/08/18 16:22:14;;;;;;;4.53;3.75;;;27.60;99.90;;;;;;9928618;29;20197;-83
2023/08/18 16:27:36;;;;;;;6.80;4.53;;;27.50;99.90;;;;;;9940563;29;20209;-82
2023/08/18 16:32:57;;;;;;;9.18;4.65;;;27.40;99.90;;;;;;9928659;30;20221;-80
2023/08/18 16:38:18;;;;;;;4.82;4.35;;;27.30;1.00;;;;;;9932328;29;20292;-82
2023/08/18 16:43:40;;;;;;;5.28;4.10;;;27.30;1.00;;;;;;9944422;29;20216;-80
2023/08/18 16:49:02;;;;;;;8.60;4.22;;;27.20;1.00;;;;;;9929324;29;20216;-80
2023/08/18 16:54:24;;;;;;;7.72;4.40;;;27.10;1.00;;;;;;9934310;29;20233;-79
2023/08/18 16:59:46;;;;;;;8.68;4.90;;;27.00;1.00;;;;;;9934131;29;20238;-80
2023/08/18 17:05:07;;;;;;;5.10;4.60;;;26.90;1.00;;;;;;9936241;29;20502;-81
2023/08/18 17:10:31;;;;;;;7.07;4.95;;;26.90;1.00;;;;;;9947463;29;20241;-80
2023/08/18 17:15:52;;;;;;;4.88;4.20;;;26.80;1.00;;;;;;9931295;29;20267;-84
2023/08/18 17:21:19;;;;;;;6.97;4.15;;;26.70;1.00;;;;;;9931473;30;20442;-83
2023/08/18 17:26:41;;;;;;;7.47;4.20;;;26.60;1.00;;;;;;9946041;29;20213;-80
2023/08/18 17:32:05;;;;;;;6.00;4.70;;;26.60;1.00;;;;;;9943498;29;20213;-79
2023/08/18 17:37:26;;;;;;;10.45;4.78;;;26.50;1.00;;;;;;9930277;29;20313;-80
2023/08/18 17:42:48;;;;;;;7.35;6.00;;;26.40;1.00;;;;;;9943086;29;20225;-80
2023/08/18 17:48:13;;;;;;;7.32;5.65;;;26.30;1.00;;;;;;9944877;29;20213;-81
2023/08/18 17:53:34;;;;;;;7.93;5.32;;;26.20;1.00;;;;;;9945154;29;20221;-80
2023/08/18 17:58:55;;;;;;;7.13;4.88;;;26.10;1.00;;;;;;9945085;29;20213;-82
2023/08/18 18:04:17;;;;;;;7.43;5.07;;;26.00;1.00;;;;;;9929474;30;20206;-80
2023/08/18 18:09:38;;;;;;;6.22;5.28;;;25.90;1.00;;;;;;9879983;29;1589054;-84
2023/08/18 18:15:00;;;;;;;8.77;6.55;;;;;;;;;;9946794;29;20510;-80
2023/08/18 18:20:21;;;;;;;8.50;6.82;;;;;;;;;;9931826;30;20205;-80
2023/08/18 18:25:43;;;;;;;8.90;5.90;;;25.70;10.20;;;;;;9931336;29;20205;-80
2023/08/18 18:31:04;;;;;;;6.65;5.90;;;25.60;60.20;;;;;;9931027;29;20250;-80
2023/08/18 18:36:26;;;;;;;8.73;5.72;;;25.40;99.90;;;;;;9931280;29;20469;-81
2023/08/18 18:41:48;;;;;;;5.88;5.00;;;25.30;99.90;;;;;;9943512;29;20258;-79
2023/08/18 18:47:10;;;;;;;7.82;6.60;;;25.30;99.90;;;;;;9943316;29;20393;-81
2023/08/18 18:52:33;;;;;;;9.45;6.90;;;25.30;99.90;;;;;;9923146;29;20213;-79
2023/08/18 18:57:54;;;;;;;10.15;6.57;;;25.20;99.90;;;;;;9941854;29;20355;-80
2023/08/18 19:03:16;;;;;;;8.75;5.90;;;25.10;99.90;;;;;;9944660;29;20236;-80
2023/08/18 19:08:38;;;;;;;11.98;6.03;;;25.00;1.00;;;;;;9916927;29;20249;-81
2023/08/18 19:13:59;;;;;;;6.55;5.60;;;;;;;;;;9930054;29;20542;-81
2023/08/18 19:19:21;;;;;;;11.45;6.00;;;24.80;1.00;;;;;;9942296;29;20391;-80
2023/08/18 19:24:42;;;;;;;7.30;5.28;;;25.00;99.90;;;;;;9939592;29;20209;-79
2023/08/18 19:30:05;;;;;;;6.95;5.68;;;24.90;99.90;;;;;;9940285;29;20205;-81
2023/08/18 19:35:27;;;;;;;9.02;5.93;;;;;;;;;;9944142;29;20414;-80
2023/08/18 19:40:53;;;;;;;6.90;6.00;;;24.50;99.90;;;;;;9928918;30;20224;-79
2023/08/18 19:46:14;;;;;;;6.05;5.07;;;24.50;99.90;;;;;;9928765;29;20213;-82
2023/08/18 19:51:35;;;;;;;8.27;5.22;;;24.40;1.00;;;;;;9928118;29;20239;-81
2023/08/18 19:56:57;;;;;;;6.20;5.38;;;;;;;;;;9928351;29;20558;-80
2023/08/18 20:02:18;;;;;;;8.13;5.78;;;24.20;1.00;;;;;;9940467;29;20566;-81
2023/08/18 20:07:39;;;;;;;6.97;6.05;;;24.10;1.00;;;;;;9927858;30;20285;-80
2023/08/18 20:13:01;;;;;;;9.82;6.78;;;;;;;;;;9927857;30;20564;-80
2023/08/18 20:18:23;;;;;;;8.15;6.75;;;23.90;99.90;;;;;;9927669;29;20233;-82
2023/08/18 20:23:45;;;;;;;8.00;6.88;;;23.80;1.00;;;;;;9941746;29;20204;-80
2023/08/18 20:29:06;;;;;;;11.30;7.45;;;23.80;1.00;;;;;;9928253;29;20529;-80
2023/08/18 20:34:27;;;;;;;10.00;7.00;;;23.70;1.00;;;;;;9940140;29;20285;-81
2023/08/18 20:39:49;;;;;;;7.38;6.63;;;23.70;1.00;;;;;;9942615;29;20276;-80
2023/08/18 20:45:10;;;;;;;8.70;7.13;;;23.70;99.90;;;;;;9928316;29;20221;-82
2023/08/18 20:50:31;;;;;;;7.28;6.30;;;23.60;99.90;;;;;;9926822;29;20444;-81
2023/08/18 20:55:52;;;;;;;6.85;6.15;;;23.60;99.90;;;;;;9939686;29;20228;-82
2023/08/18 21:01:14;;;;;;;8.65;6.88;;;23.60;1.00;;;;;;9941986;29;20212;-79
2023/08/18 21:06:36;;;;;;;11.40;7.20;;;;;;;;;;9942010;29;20407;-79
2023/08/18 21:11:57;;;;;;;13.75;8.85;;;23.40;1.00;;;;;;9926382;29;20438;-79
2023/08/18 21:17:18;;;;;;;11.07;8.15;;;23.40;54.10;;;;;;9927690;29;20225;-79
2023/08/18 21:22:44;;;;;;;10.05;7.95;;;23.20;1.00;;;;;;9913704;30;20558;-79
2023/08/18 21:28:06;;;;;;;9.43;7.18;;;23.20;1.00;;;;;;9926223;29;20292;-81
2023/08/18 21:33:27;;;;;;;8.75;7.43;;;23.20;99.90;;;;;;9913662;30;20470;-79
2023/08/18 21:38:48;;;;;;;9.93;8.90;;;23.20;29.90;;;;;;9933418;29;20563;-79
2023/08/18 21:44:09;;;;;;;11.35;9.30;;;23.10;1.00;;;;;;9945896;29;20251;-79
2023/08/18 21:49:31;;;;;;;9.65;8.32;;;22.90;1.00;;;;;;9932292;29;20205;-79
2023/08/18 21:54:52;;;;;;;14.73;10.23;;;22.80;1.00;;;;;;9944711;29;20256;-79
2023/08/18 22:00:14;;;;;;;11.63;9.57;;;22.70;99.90;;;;;;9947088;29;20216;-79
2023/08/18 22:05:39;;;;;;;12.60;9.43;;;22.50;1.00;;;;;;9931715;30;20384;-79
2023/08/18 22:11:01;;;;;;;12.10;9.80;;;22.50;1.00;;;;;;9946438;29;20249;-80
2023/08/18 22:16:22;;;;;;;12.85;10.52;;;22.40;1.00;;;;;;9944490;29;20289;-80
2023/08/18 22:21:45;;;;;;;9.57;8.57;;;22.30;1.00;;;;;;9944386;29;20244;-80
2023/08/18 22:27:08;;;;;;;9.90;8.90;;;22.30;1.00;;;;;;9931244;29;20213;-81
2023/08/18 22:32:29;;;;;;;13.40;10.60;;;22.30;1.00;;;;;;9931059;30;20231;-84
2023/08/18 22:37:50;;;;;;;12.88;10.85;;;22.20;1.00;;;;;;9930748;29;20256;-81
2023/08/18 22:43:12;;;;;;;11.20;8.93;;;22.10;12.40;;;;;;9943564;29;20221;-79
2023/08/18 22:48:34;;;;;;;9.48;7.57;;;;;;;;;;9929523;29;20212;-80
2023/08/18 22:54:07;;;;;;;12.18;8.25;;;22.10;3.40;;;;;;9942812;29;20225;-81
2023/08/18 22:59:28;;;;;;;14.38;10.35;;;22.10;1.00;;;;;;9943027;29;20205;-80
2023/08/18 23:04:50;;;;;;;9.43;8.43;;;22.00;99.90;;;;;;9942778;29;20495;-82
2023/08/18 23:10:11;;;;;;;10.55;8.65;;;22.00;99.90;;;;;;9929623;29;20518;-81
2023/08/18 23:15:34;;;;;;;9.63;8.65;;;21.90;99.90;;;;;;9929700;29;20239;-81
2023/08/18 23:20:56;;;;;;;10.75;9.38;;;;;;;;;;9931568;29;20202;-80
2023/08/18 23:26:19;;;;;;;9.05;8.15;;;21.90;1.00;;;;;;9929273;29;20204;-80
2023/08/18 23:31:41;;;;;;;9.98;8.23;;;21.80;1.00;;;;;;9941820;29;20205;-81
2023/08/18 23:37:03;;;;;;;8.70;7.63;;;21.90;1.00;;;;;;9942495;29;20401;-80
2023/08/18 23:42:24;;;;;;;8.48;7.50;;;21.90;1.00;;;;;;9929515;29;20210;-79
2023/08/18 23:47:46;;;;;;;8.57;7.13;;;21.90;99.90;;;;;;9941384;29;20503;-80
2023/08/18 23:53:07;;;;;;;9.68;7.45;;;22.00;99.90;;;;;;9940755;29;20216;-81
2023/08/18 23:58:29;;;;;;;8.30;7.45;;;22.00;99.90;;;;;;9940902;29;20272;-79
